createdAt,value
2022-12-27T00:03:31.378Z,7.2
2022-12-27T00:09:08.384Z,4.8
2022-12-27T00:14:21.845Z,4.8
2022-12-27T00:20:13.144Z,7.2
2022-12-27T00:25:32.043Z,4.8
2022-12-27T00:30:54.643Z,3.6
2022-12-27T00:36:28.360Z,3.6
2022-12-27T00:42:02.271Z,8.4
2022-12-27T00:47:30.075Z,7.2
2022-12-27T00:53:14.015Z,4.8
2022-12-27T00:58:46.725Z,5.9
2022-12-27T01:04:12.580Z,4.8
2022-12-27T01:09:54.156Z,3.6
2022-12-27T01:15:19.909Z,5.9
2022-12-27T01:21:04.540Z,3.6
2022-12-27T01:26:36.344Z,3.6
2022-12-27T01:31:56.599Z,5.9
2022-12-27T01:37:48.806Z,8.4
2022-12-27T01:42:59.030Z,10.7
2022-12-27T01:48:33.696Z,9.6
2022-12-27T01:54:30.820Z,14.4
2022-12-27T01:59:51.365Z,9.6
2022-12-27T02:05:10.891Z,8.4
2022-12-27T02:11:07.626Z,11.9
2022-12-27T02:16:42.919Z,13.2
2022-12-27T02:21:49.053Z,16.8
2022-12-27T02:27:38.471Z,15.6
2022-12-27T02:33:13.809Z,16.8
2022-12-27T02:38:27.376Z,11.9
2022-12-27T02:44:01.236Z,9.6
2022-12-27T02:49:36.175Z,7.2
2022-12-27T02:55:28.676Z,5.9
2022-12-27T03:00:51.961Z,4.8
2022-12-27T03:06:11.326Z,4.8
2022-12-27T03:11:55.071Z,5.9
2022-12-27T03:17:27.894Z,5.9
2022-12-27T03:22:50.883Z,5.9
2022-12-27T03:28:27.597Z,5.9
2022-12-27T03:33:55.910Z,2.4
2022-12-27T03:39:27.465Z,0
2022-12-27T03:45:20.391Z,0
2022-12-27T03:50:56.746Z,0
2022-12-27T03:56:28.796Z,2.4
2022-12-27T04:01:41.330Z,3.6
2022-12-27T04:07:27.824Z,3.6
2022-12-27T04:12:58.670Z,0
2022-12-27T04:18:39.108Z,0
2022-12-27T04:23:45.838Z,0
2022-12-27T04:29:23.316Z,3.6
2022-12-27T04:35:04.148Z,3.6
2022-12-27T04:46:21.502Z,8.4
2022-12-27T04:51:31.249Z,5.9
2022-12-27T04:57:29.188Z,5.9
2022-12-27T05:02:36.212Z,8.4
2022-12-27T05:08:12.811Z,8.4
2022-12-27T05:14:06.411Z,4.8
2022-12-27T05:19:27.903Z,3.6
2022-12-27T05:24:50.981Z,2.4
2022-12-27T05:30:42.605Z,0
2022-12-27T05:36:14.232Z,2.4
2022-12-27T05:41:42.582Z,0
2022-12-27T05:47:07.001Z,0
2022-12-27T05:52:44.083Z,0
2022-12-27T05:58:22.064Z,0
2022-12-27T06:03:40.115Z,0
2022-12-27T06:09:06.559Z,0
2022-12-27T06:14:37.654Z,0
2022-12-27T06:20:14.856Z,0
2022-12-27T06:25:51.490Z,0
2022-12-27T06:31:23.417Z,0
2022-12-27T06:36:51.934Z,3.6
2022-12-27T06:42:20.822Z,0
2022-12-27T06:48:06.982Z,0
2022-12-27T06:53:39.905Z,0
2022-12-27T06:58:53.149Z,0
2022-12-27T07:04:44.702Z,0
2022-12-27T07:10:00.276Z,0
2022-12-27T07:15:33.218Z,0
2022-12-27T07:20:58.918Z,0
2022-12-27T07:26:34.167Z,0
2022-12-27T07:32:21.907Z,0
2022-12-27T07:37:50.736Z,0
2022-12-27T07:43:21.318Z,0
2022-12-27T07:48:31.073Z,0
2022-12-27T07:54:05.580Z,0
2022-12-27T07:59:34.157Z,0
2022-12-27T08:05:14.270Z,0
2022-12-27T08:10:48.074Z,0
2022-12-27T08:16:26.538Z,0
2022-12-27T08:22:11.195Z,0
2022-12-27T08:27:15.716Z,0
2022-12-27T08:32:59.057Z,0
2022-12-27T08:38:32.524Z,0
2022-12-27T08:44:09.168Z,0
2022-12-27T08:49:40.225Z,0
2022-12-27T08:55:20.927Z,0
2022-12-27T09:00:36.821Z,0
2022-12-27T09:06:16.265Z,0
2022-12-27T09:11:47.944Z,0
2022-12-27T09:23:06.071Z,0
2022-12-27T09:28:24.032Z,0
2022-12-27T09:33:45.510Z,4.8
2022-12-27T09:39:30.876Z,0
2022-12-27T09:45:14.982Z,4.8
2022-12-27T09:50:35.009Z,9.6
2022-12-27T09:56:09.379Z,8.4
2022-12-27T10:01:45.026Z,4.8
2022-12-27T10:07:23.475Z,0
2022-12-27T10:12:41.299Z,4.8
2022-12-27T10:18:32.843Z,5.9
2022-12-27T10:23:43.628Z,4.8
2022-12-27T10:29:29.839Z,0
2022-12-27T10:34:58.714Z,3.6
2022-12-27T10:40:46.646Z,4.8
2022-12-27T11:58:34.814Z,5.9
2022-12-27T13:21:49.941Z,4.8
2022-12-27T13:33:03.407Z,2.4
2022-12-27T13:38:32.447Z,3.6
2022-12-27T13:44:02.167Z,3.6
2022-12-27T14:01:02.654Z,0
2022-12-27T14:06:28.238Z,0
2022-12-27T14:11:46.145Z,0
2022-12-27T14:17:35.090Z,0
2022-12-27T14:22:55.971Z,0
2022-12-27T14:28:35.261Z,0
2022-12-27T14:34:05.875Z,0
2022-12-27T14:39:36.712Z,0
2022-12-27T14:45:21.171Z,0
2022-12-27T14:50:38.237Z,0
2022-12-27T14:56:08.791Z,2.4
2022-12-27T15:01:44.789Z,3.6
2022-12-27T15:07:34.194Z,3.6
2022-12-27T15:12:40.127Z,4.8
2022-12-27T15:18:30.983Z,2.4
2022-12-27T15:23:51.709Z,0
2022-12-27T15:29:14.675Z,0
2022-12-27T15:35:15.175Z,0
2022-12-27T15:51:29.186Z,0
2022-12-27T16:08:13.246Z,0
2022-12-27T16:13:57.244Z,0
2022-12-27T16:19:36.935Z,0
2022-12-27T16:30:14.358Z,0
2022-12-27T16:36:06.162Z,0
2022-12-27T16:41:40.491Z,0
2022-12-27T16:47:07.641Z,0
2022-12-27T16:52:31.409Z,0
2022-12-27T16:58:10.849Z,0
2022-12-27T17:03:28.890Z,0
2022-12-27T17:09:01.214Z,0
2022-12-27T17:14:53.084Z,0
2022-12-27T17:19:59.100Z,0
2022-12-27T17:25:54.206Z,0
2022-12-27T17:31:11.133Z,0
2022-12-27T17:42:07.112Z,0
2022-12-27T17:47:47.167Z,0
2022-12-27T17:53:30.285Z,0
2022-12-27T17:59:06.427Z,0
2022-12-27T18:04:24.460Z,0
2022-12-27T18:10:10.616Z,0
2022-12-27T18:15:36.949Z,0
2022-12-27T18:21:10.001Z,0
2022-12-27T18:26:25.277Z,0
2022-12-27T18:32:18.120Z,0
2022-12-27T18:37:25.202Z,0
2022-12-27T18:43:19.168Z,0
2022-12-27T18:48:25.472Z,0
2022-12-27T18:54:18.061Z,0
2022-12-27T18:59:34.417Z,0
2022-12-27T19:05:10.185Z,0
2022-12-27T19:10:52.105Z,0
2022-12-27T19:16:22.608Z,0
2022-12-27T19:21:54.589Z,0
2022-12-27T19:27:12.318Z,0
2022-12-27T19:32:44.716Z,0
2022-12-27T19:38:11.306Z,0
2022-12-27T19:43:59.272Z,0
2022-12-27T19:49:43.909Z,0
2022-12-27T19:55:13.971Z,0
2022-12-27T20:00:43.390Z,0
2022-12-27T20:06:20.959Z,0
2022-12-27T23:03:20.499Z,0
2022-12-27T23:09:11.039Z,0
2022-12-27T23:14:38.590Z,0
2022-12-27T23:19:53.773Z,0
2022-12-27T23:25:37.414Z,0
2022-12-27T23:31:12.551Z,0
2022-12-27T23:36:36.662Z,0
2022-12-27T23:42:05.987Z,0
2022-12-27T23:47:54.382Z,0
2022-12-27T23:53:05.452Z,0
2022-12-27T23:58:42.966Z,0
